Terminal Aerodrome Forecast
Issued by NWS

Home | Current Version | Previous Version | Text Only | Print | Product List | Glossary On
Versions: 1 2 3 4 5 6 7 8 9 10 11 12 13 14 15 16 17 18 19 20
000
FTUS41 KILN 010700 AAB
TAFLUK
TAF AMD
KLUK 010701Z 0107/0206 00000KT 3SM BR FEW100
      TEMPO 0107/0108 2SM BR
     FM010800 00000KT 2SM BR FEW100
      TEMPO 0108/0109 3/4SM BR
     FM010900 00000KT 1/2SM FG VV002
      TEMPO 0110/0112 1/4SM FG
     FM011300 00000KT 3SM BR SCT002
     FM011400 08003KT P6SM FEW030
     FM011700 08004KT P6SM BKN060
     FM020000 08003KT P6SM VCTS BKN060CB
     FM020300 00000KT P6SM SCT060 BKN250=

USA.gov is the U.S. government's official web portal to all federal, state and local government web resources and services.